sensor_id;sensor_type;location;lat;lon;timestamp;P1;durP1;ratioP1;P2;durP2;ratioP2
14665;SDS011;7420;53.574;10.040;2023-04-03T00:01:11;5.13;;;3.60;;
14665;SDS011;7420;53.574;10.040;2023-04-03T00:03:36;5.57;;;3.78;;
14665;SDS011;7420;53.574;10.040;2023-04-03T00:06:02;7.82;;;3.35;;
14665;SDS011;7420;53.574;10.040;2023-04-03T00:08:28;9.60;;;3.50;;
14665;SDS011;7420;53.574;10.040;2023-04-03T00:10:55;5.50;;;3.28;;
14665;SDS011;7420;53.574;10.040;2023-04-03T00:13:21;12.43;;;4.90;;
14665;SDS011;7420;53.574;10.040;2023-04-03T00:15:46;6.00;;;3.17;;
14665;SDS011;7420;53.574;10.040;2023-04-03T00:18:12;10.48;;;3.58;;
14665;SDS011;7420;53.574;10.040;2023-04-03T00:20:37;8.93;;;3.33;;
14665;SDS011;7420;53.574;10.040;2023-04-03T00:23:03;9.77;;;3.88;;
14665;SDS011;7420;53.574;10.040;2023-04-03T00:25:28;8.18;;;3.38;;
14665;SDS011;7420;53.574;10.040;2023-04-03T00:27:54;4.88;;;3.67;;
14665;SDS011;7420;53.574;10.040;2023-04-03T00:30:20;6.53;;;3.63;;
14665;SDS011;7420;53.574;10.040;2023-04-03T00:32:50;8.18;;;3.55;;
14665;SDS011;7420;53.574;10.040;2023-04-03T00:35:16;5.40;;;2.80;;
14665;SDS011;7420;53.574;10.040;2023-04-03T00:37:43;7.18;;;3.55;;
14665;SDS011;7420;53.574;10.040;2023-04-03T00:40:12;8.43;;;3.50;;
14665;SDS011;7420;53.574;10.040;2023-04-03T00:42:39;5.03;;;3.33;;
14665;SDS011;7420;53.574;10.040;2023-04-03T00:47:36;11.15;;;3.50;;
14665;SDS011;7420;53.574;10.040;2023-04-03T00:50:04;10.07;;;3.53;;
14665;SDS011;7420;53.574;10.040;2023-04-03T00:52:30;6.75;;;3.40;;
14665;SDS011;7420;53.574;10.040;2023-04-03T00:55:00;7.15;;;3.05;;
14665;SDS011;7420;53.574;10.040;2023-04-03T01:00:00;7.00;;;3.40;;
14665;SDS011;7420;53.574;10.040;2023-04-03T01:02:29;8.75;;;3.83;;
14665;SDS011;7420;53.574;10.040;2023-04-03T01:04:54;6.10;;;3.15;;
14665;SDS011;7420;53.574;10.040;2023-04-03T01:07:27;7.22;;;3.53;;
14665;SDS011;7420;53.574;10.040;2023-04-03T01:09:59;8.07;;;4.93;;
14665;SDS011;7420;53.574;10.040;2023-04-03T01:12:27;7.90;;;3.50;;
14665;SDS011;7420;53.574;10.040;2023-04-03T01:15:05;7.55;;;3.00;;
14665;SDS011;7420;53.574;10.040;2023-04-03T01:17:34;8.85;;;3.47;;
14665;SDS011;7420;53.574;10.040;2023-04-03T01:27:55;7.95;;;3.40;;
14665;SDS011;7420;53.574;10.040;2023-04-03T01:30:21;6.68;;;3.28;;
14665;SDS011;7420;53.574;10.040;2023-04-03T01:32:53;8.10;;;3.53;;
14665;SDS011;7420;53.574;10.040;2023-04-03T01:35:18;7.22;;;4.07;;
14665;SDS011;7420;53.574;10.040;2023-04-03T01:37:43;8.70;;;3.65;;
14665;SDS011;7420;53.574;10.040;2023-04-03T01:40:09;7.68;;;3.15;;
14665;SDS011;7420;53.574;10.040;2023-04-03T01:42:35;8.75;;;3.50;;
14665;SDS011;7420;53.574;10.040;2023-04-03T01:45:00;8.90;;;3.55;;
14665;SDS011;7420;53.574;10.040;2023-04-03T01:47:25;6.75;;;3.47;;
14665;SDS011;7420;53.574;10.040;2023-04-03T01:49:51;8.30;;;4.03;;
14665;SDS011;7420;53.574;10.040;2023-04-03T01:52:16;7.90;;;3.85;;
14665;SDS011;7420;53.574;10.040;2023-04-03T01:54:41;6.22;;;3.67;;
14665;SDS011;7420;53.574;10.040;2023-04-03T01:57:07;8.85;;;4.80;;
14665;SDS011;7420;53.574;10.040;2023-04-03T01:59:32;5.88;;;3.50;;
14665;SDS011;7420;53.574;10.040;2023-04-03T02:01:58;7.38;;;3.20;;
14665;SDS011;7420;53.574;10.040;2023-04-03T02:04:23;7.10;;;3.13;;
14665;SDS011;7420;53.574;10.040;2023-04-03T02:06:48;5.35;;;3.17;;
14665;SDS011;7420;53.574;10.040;2023-04-03T02:09:14;8.73;;;3.22;;
14665;SDS011;7420;53.574;10.040;2023-04-03T02:11:39;9.30;;;3.40;;
14665;SDS011;7420;53.574;10.040;2023-04-03T02:14:05;7.15;;;3.47;;
14665;SDS011;7420;53.574;10.040;2023-04-03T02:16:31;9.40;;;3.28;;
14665;SDS011;7420;53.574;10.040;2023-04-03T02:18:56;9.68;;;3.35;;
14665;SDS011;7420;53.574;10.040;2023-04-03T02:21:21;5.38;;;3.22;;
14665;SDS011;7420;53.574;10.040;2023-04-03T02:23:47;6.22;;;3.45;;
14665;SDS011;7420;53.574;10.040;2023-04-03T02:26:13;7.38;;;3.45;;
14665;SDS011;7420;53.574;10.040;2023-04-03T02:28:40;7.70;;;3.42;;
14665;SDS011;7420;53.574;10.040;2023-04-03T02:31:06;6.05;;;3.47;;
14665;SDS011;7420;53.574;10.040;2023-04-03T02:33:32;6.53;;;3.38;;
14665;SDS011;7420;53.574;10.040;2023-04-03T02:35:58;6.45;;;3.85;;
14665;SDS011;7420;53.574;10.040;2023-04-03T02:38:24;5.55;;;3.40;;
14665;SDS011;7420;53.574;10.040;2023-04-03T02:40:50;6.95;;;3.72;;
14665;SDS011;7420;53.574;10.040;2023-04-03T02:43:16;5.15;;;3.03;;
14665;SDS011;7420;53.574;10.040;2023-04-03T02:45:41;10.70;;;3.80;;
14665;SDS011;7420;53.574;10.040;2023-04-03T02:48:07;9.98;;;4.40;;
14665;SDS011;7420;53.574;10.040;2023-04-03T02:50:32;9.90;;;4.00;;
14665;SDS011;7420;53.574;10.040;2023-04-03T02:52:57;8.38;;;3.60;;
14665;SDS011;7420;53.574;10.040;2023-04-03T02:55:23;7.95;;;4.18;;
14665;SDS011;7420;53.574;10.040;2023-04-03T02:57:48;7.22;;;3.67;;
14665;SDS011;7420;53.574;10.040;2023-04-03T03:00:13;7.07;;;3.83;;
14665;SDS011;7420;53.574;10.040;2023-04-03T03:02:39;8.68;;;4.00;;
14665;SDS011;7420;53.574;10.040;2023-04-03T03:05:05;8.15;;;3.53;;
14665;SDS011;7420;53.574;10.040;2023-04-03T03:07:31;6.85;;;3.83;;
14665;SDS011;7420;53.574;10.040;2023-04-03T03:09:57;7.43;;;3.58;;
14665;SDS011;7420;53.574;10.040;2023-04-03T03:12:22;5.53;;;3.20;;
14665;SDS011;7420;53.574;10.040;2023-04-03T03:14:49;7.05;;;3.53;;
14665;SDS011;7420;53.574;10.040;2023-04-03T03:17:14;7.38;;;3.17;;
14665;SDS011;7420;53.574;10.040;2023-04-03T03:19:40;6.00;;;3.50;;
14665;SDS011;7420;53.574;10.040;2023-04-03T03:22:05;11.70;;;4.28;;
14665;SDS011;7420;53.574;10.040;2023-04-03T03:24:31;11.00;;;5.38;;
14665;SDS011;7420;53.574;10.040;2023-04-03T03:26:57;7.18;;;4.20;;
14665;SDS011;7420;53.574;10.040;2023-04-03T03:29:23;8.02;;;3.88;;
14665;SDS011;7420;53.574;10.040;2023-04-03T03:31:48;7.70;;;4.30;;
14665;SDS011;7420;53.574;10.040;2023-04-03T03:34:13;7.07;;;3.72;;
14665;SDS011;7420;53.574;10.040;2023-04-03T03:36:39;10.68;;;3.97;;
14665;SDS011;7420;53.574;10.040;2023-04-03T03:39:05;10.93;;;4.43;;
14665;SDS011;7420;53.574;10.040;2023-04-03T03:41:31;6.90;;;3.22;;
14665;SDS011;7420;53.574;10.040;2023-04-03T03:43:56;6.65;;;3.38;;
14665;SDS011;7420;53.574;10.040;2023-04-03T03:46:22;4.85;;;3.50;;
14665;SDS011;7420;53.574;10.040;2023-04-03T03:48:47;7.93;;;4.38;;
14665;SDS011;7420;53.574;10.040;2023-04-03T03:51:13;9.27;;;3.67;;
14665;SDS011;7420;53.574;10.040;2023-04-03T03:53:38;5.70;;;3.50;;
14665;SDS011;7420;53.574;10.040;2023-04-03T03:56:04;9.18;;;3.42;;
14665;SDS011;7420;53.574;10.040;2023-04-03T03:58:29;8.80;;;5.45;;
14665;SDS011;7420;53.574;10.040;2023-04-03T04:00:55;9.30;;;4.05;;
14665;SDS011;7420;53.574;10.040;2023-04-03T04:03:20;11.48;;;3.30;;
14665;SDS011;7420;53.574;10.040;2023-04-03T04:05:46;7.47;;;3.80;;
14665;SDS011;7420;53.574;10.040;2023-04-03T04:08:11;7.45;;;3.53;;
14665;SDS011;7420;53.574;10.040;2023-04-03T04:10:36;11.13;;;3.22;;
14665;SDS011;7420;53.574;10.040;2023-04-03T04:13:02;4.45;;;3.10;;
14665;SDS011;7420;53.574;10.040;2023-04-03T04:15:28;7.68;;;3.60;;
14665;SDS011;7420;53.574;10.040;2023-04-03T04:17:54;8.35;;;3.80;;
14665;SDS011;7420;53.574;10.040;2023-04-03T04:20:19;5.47;;;3.20;;
14665;SDS011;7420;53.574;10.040;2023-04-03T04:22:44;13.68;;;4.03;;
14665;SDS011;7420;53.574;10.040;2023-04-03T04:25:10;8.82;;;3.40;;
14665;SDS011;7420;53.574;10.040;2023-04-03T04:27:35;6.65;;;3.55;;
14665;SDS011;7420;53.574;10.040;2023-04-03T04:30:02;10.00;;;4.13;;
14665;SDS011;7420;53.574;10.040;2023-04-03T04:32:28;9.55;;;3.85;;
14665;SDS011;7420;53.574;10.040;2023-04-03T04:34:53;13.43;;;4.72;;
14665;SDS011;7420;53.574;10.040;2023-04-03T04:37:19;7.68;;;3.95;;
14665;SDS011;7420;53.574;10.040;2023-04-03T04:39:44;6.43;;;3.47;;
14665;SDS011;7420;53.574;10.040;2023-04-03T04:42:09;7.45;;;3.97;;
14665;SDS011;7420;53.574;10.040;2023-04-03T04:44:55;10.88;;;4.03;;
14665;SDS011;7420;53.574;10.040;2023-04-03T04:47:20;6.88;;;3.50;;
14665;SDS011;7420;53.574;10.040;2023-04-03T04:49:46;7.47;;;4.15;;
14665;SDS011;7420;53.574;10.040;2023-04-03T04:52:12;7.22;;;3.55;;
14665;SDS011;7420;53.574;10.040;2023-04-03T04:54:37;6.03;;;2.88;;
14665;SDS011;7420;53.574;10.040;2023-04-03T04:57:03;8.55;;;4.68;;
14665;SDS011;7420;53.574;10.040;2023-04-03T04:59:28;6.38;;;3.42;;
14665;SDS011;7420;53.574;10.040;2023-04-03T05:01:54;7.35;;;3.67;;
14665;SDS011;7420;53.574;10.040;2023-04-03T05:04:19;7.07;;;3.05;;
14665;SDS011;7420;53.574;10.040;2023-04-03T05:06:45;6.75;;;3.30;;
14665;SDS011;7420;53.574;10.040;2023-04-03T05:09:10;6.78;;;3.38;;
14665;SDS011;7420;53.574;10.040;2023-04-03T05:11:35;8.30;;;3.30;;
14665;SDS011;7420;53.574;10.040;2023-04-03T05:14:01;5.68;;;3.53;;
14665;SDS011;7420;53.574;10.040;2023-04-03T05:16:26;8.20;;;3.13;;
14665;SDS011;7420;53.574;10.040;2023-04-03T05:18:52;6.70;;;3.55;;
14665;SDS011;7420;53.574;10.040;2023-04-03T05:21:17;7.13;;;3.47;;
14665;SDS011;7420;53.574;10.040;2023-04-03T05:23:48;7.70;;;3.25;;
14665;SDS011;7420;53.574;10.040;2023-04-03T05:26:13;10.60;;;3.90;;
14665;SDS011;7420;53.574;10.040;2023-04-03T05:28:39;7.55;;;4.07;;
14665;SDS011;7420;53.574;10.040;2023-04-03T05:31:04;11.13;;;4.15;;
14665;SDS011;7420;53.574;10.040;2023-04-03T05:33:30;8.95;;;3.97;;
14665;SDS011;7420;53.574;10.040;2023-04-03T05:35:55;8.00;;;3.78;;
14665;SDS011;7420;53.574;10.040;2023-04-03T05:38:20;6.68;;;4.18;;
14665;SDS011;7420;53.574;10.040;2023-04-03T05:40:46;6.90;;;4.15;;
14665;SDS011;7420;53.574;10.040;2023-04-03T05:43:11;12.40;;;4.40;;
14665;SDS011;7420;53.574;10.040;2023-04-03T05:45:37;7.95;;;3.88;;
14665;SDS011;7420;53.574;10.040;2023-04-03T05:48:02;6.55;;;4.05;;
14665;SDS011;7420;53.574;10.040;2023-04-03T05:50:28;6.55;;;4.13;;
14665;SDS011;7420;53.574;10.040;2023-04-03T05:52:54;6.03;;;4.13;;
14665;SDS011;7420;53.574;10.040;2023-04-03T05:55:22;7.90;;;4.05;;
14665;SDS011;7420;53.574;10.040;2023-04-03T05:57:47;18.70;;;8.10;;
14665;SDS011;7420;53.574;10.040;2023-04-03T06:00:13;17.30;;;7.90;;
14665;SDS011;7420;53.574;10.040;2023-04-03T06:02:40;28.02;;;13.02;;
14665;SDS011;7420;53.574;10.040;2023-04-03T06:05:06;33.63;;;13.70;;
14665;SDS011;7420;53.574;10.040;2023-04-03T06:07:33;10.23;;;5.00;;
14665;SDS011;7420;53.574;10.040;2023-04-03T06:09:59;20.35;;;8.95;;
14665;SDS011;7420;53.574;10.040;2023-04-03T06:12:25;14.35;;;6.38;;
14665;SDS011;7420;53.574;10.040;2023-04-03T06:14:51;10.38;;;4.55;;
14665;SDS011;7420;53.574;10.040;2023-04-03T06:17:16;10.52;;;4.68;;
14665;SDS011;7420;53.574;10.040;2023-04-03T06:19:42;8.68;;;5.22;;
14665;SDS011;7420;53.574;10.040;2023-04-03T06:22:08;9.68;;;4.00;;
14665;SDS011;7420;53.574;10.040;2023-04-03T06:24:33;12.80;;;4.28;;
14665;SDS011;7420;53.574;10.040;2023-04-03T06:26:59;8.18;;;3.83;;
14665;SDS011;7420;53.574;10.040;2023-04-03T06:29:24;12.80;;;3.83;;
14665;SDS011;7420;53.574;10.040;2023-04-03T06:31:50;9.10;;;4.18;;
14665;SDS011;7420;53.574;10.040;2023-04-03T06:34:16;5.40;;;3.55;;
14665;SDS011;7420;53.574;10.040;2023-04-03T06:36:43;9.93;;;3.60;;
14665;SDS011;7420;53.574;10.040;2023-04-03T06:39:13;7.32;;;3.65;;
14665;SDS011;7420;53.574;10.040;2023-04-03T06:41:40;5.25;;;3.25;;
14665;SDS011;7420;53.574;10.040;2023-04-03T06:44:06;5.80;;;3.60;;
14665;SDS011;7420;53.574;10.040;2023-04-03T06:46:33;5.93;;;3.05;;
14665;SDS011;7420;53.574;10.040;2023-04-03T06:48:58;6.53;;;3.17;;
14665;SDS011;7420;53.574;10.040;2023-04-03T06:51:27;5.03;;;2.58;;
14665;SDS011;7420;53.574;10.040;2023-04-03T06:53:56;4.85;;;2.88;;
14665;SDS011;7420;53.574;10.040;2023-04-03T06:56:23;10.00;;;2.88;;
14665;SDS011;7420;53.574;10.040;2023-04-03T06:58:50;8.07;;;2.88;;
14665;SDS011;7420;53.574;10.040;2023-04-03T07:01:16;5.93;;;3.42;;
14665;SDS011;7420;53.574;10.040;2023-04-03T07:03:44;6.10;;;2.70;;
14665;SDS011;7420;53.574;10.040;2023-04-03T07:06:12;5.32;;;2.78;;
14665;SDS011;7420;53.574;10.040;2023-04-03T07:08:38;4.90;;;3.33;;
14665;SDS011;7420;53.574;10.040;2023-04-03T07:11:04;5.03;;;2.65;;
14665;SDS011;7420;53.574;10.040;2023-04-03T07:13:30;4.90;;;2.50;;
14665;SDS011;7420;53.574;10.040;2023-04-03T07:15:56;5.65;;;2.63;;
14665;SDS011;7420;53.574;10.040;2023-04-03T07:18:22;6.72;;;2.65;;
14665;SDS011;7420;53.574;10.040;2023-04-03T07:20:48;3.97;;;2.58;;
14665;SDS011;7420;53.574;10.040;2023-04-03T07:23:13;4.63;;;2.22;;
14665;SDS011;7420;53.574;10.040;2023-04-03T07:25:46;3.38;;;2.15;;
14665;SDS011;7420;53.574;10.040;2023-04-03T07:28:12;16.83;;;2.75;;
14665;SDS011;7420;53.574;10.040;2023-04-03T07:30:45;6.80;;;2.22;;
14665;SDS011;7420;53.574;10.040;2023-04-03T07:33:12;5.65;;;2.03;;
14665;SDS011;7420;53.574;10.040;2023-04-03T07:35:38;5.22;;;1.98;;
14665;SDS011;7420;53.574;10.040;2023-04-03T07:38:04;7.07;;;2.47;;
14665;SDS011;7420;53.574;10.040;2023-04-03T07:40:30;6.13;;;3.35;;
14665;SDS011;7420;53.574;10.040;2023-04-03T07:42:56;11.77;;;5.47;;
14665;SDS011;7420;53.574;10.040;2023-04-03T07:45:21;12.30;;;5.18;;
14665;SDS011;7420;53.574;10.040;2023-04-03T07:47:48;5.30;;;1.90;;
14665;SDS011;7420;53.574;10.040;2023-04-03T07:50:13;4.30;;;1.92;;
14665;SDS011;7420;53.574;10.040;2023-04-03T07:52:39;7.95;;;3.60;;
14665;SDS011;7420;53.574;10.040;2023-04-03T07:55:05;6.05;;;2.83;;
14665;SDS011;7420;53.574;10.040;2023-04-03T07:57:31;5.68;;;2.00;;
14665;SDS011;7420;53.574;10.040;2023-04-03T07:59:56;4.22;;;1.80;;
14665;SDS011;7420;53.574;10.040;2023-04-03T08:02:22;3.42;;;2.17;;
14665;SDS011;7420;53.574;10.040;2023-04-03T08:04:47;3.08;;;1.75;;
14665;SDS011;7420;53.574;10.040;2023-04-03T08:07:12;5.32;;;2.63;;
14665;SDS011;7420;53.574;10.040;2023-04-03T08:09:38;3.40;;;2.40;;
14665;SDS011;7420;53.574;10.040;2023-04-03T08:12:03;4.57;;;1.88;;
14665;SDS011;7420;53.574;10.040;2023-04-03T08:14:30;6.10;;;2.72;;
14665;SDS011;7420;53.574;10.040;2023-04-03T08:17:02;2.38;;;1.95;;
14665;SDS011;7420;53.574;10.040;2023-04-03T08:19:29;3.80;;;1.95;;
14665;SDS011;7420;53.574;10.040;2023-04-03T08:21:56;4.40;;;1.77;;
14665;SDS011;7420;53.574;10.040;2023-04-03T08:24:23;5.95;;;2.00;;
14665;SDS011;7420;53.574;10.040;2023-04-03T08:26:49;3.42;;;1.83;;
14665;SDS011;7420;53.574;10.040;2023-04-03T08:29:15;3.60;;;2.03;;
14665;SDS011;7420;53.574;10.040;2023-04-03T08:31:40;3.20;;;1.58;;
14665;SDS011;7420;53.574;10.040;2023-04-03T08:34:06;3.85;;;1.50;;
14665;SDS011;7420;53.574;10.040;2023-04-03T08:36:31;7.00;;;2.78;;
14665;SDS011;7420;53.574;10.040;2023-04-03T08:38:57;5.90;;;2.03;;
14665;SDS011;7420;53.574;10.040;2023-04-03T08:49:53;3.33;;;2.22;;
14665;SDS011;7420;53.574;10.040;2023-04-03T08:55:38;3.35;;;1.67;;
14665;SDS011;7420;53.574;10.040;2023-04-03T08:58:11;2.28;;;1.48;;
14665;SDS011;7420;53.574;10.040;2023-04-03T09:00:46;2.55;;;1.50;;
14665;SDS011;7420;53.574;10.040;2023-04-03T09:03:16;5.40;;;1.70;;
14665;SDS011;7420;53.574;10.040;2023-04-03T09:05:45;4.25;;;1.48;;
14665;SDS011;7420;53.574;10.040;2023-04-03T09:08:22;3.50;;;1.92;;
14665;SDS011;7420;53.574;10.040;2023-04-03T09:10:48;5.63;;;1.73;;
14665;SDS011;7420;53.574;10.040;2023-04-03T09:15:49;3.38;;;1.90;;
14665;SDS011;7420;53.574;10.040;2023-04-03T09:26:19;3.03;;;1.80;;
14665;SDS011;7420;53.574;10.040;2023-04-03T09:28:51;3.08;;;1.52;;
14665;SDS011;7420;53.574;10.040;2023-04-03T09:31:48;5.38;;;2.20;;
14665;SDS011;7420;53.574;10.040;2023-04-03T09:34:26;2.67;;;1.40;;
14665;SDS011;7420;53.574;10.040;2023-04-03T09:36:58;2.80;;;1.60;;
14665;SDS011;7420;53.574;10.040;2023-04-03T09:39:30;2.83;;;1.38;;
14665;SDS011;7420;53.574;10.040;2023-04-03T09:42:01;4.72;;;1.60;;
14665;SDS011;7420;53.574;10.040;2023-04-03T09:44:35;2.97;;;1.77;;
14665;SDS011;7420;53.574;10.040;2023-04-03T09:52:37;3.58;;;2.10;;
14665;SDS011;7420;53.574;10.040;2023-04-03T09:55:23;4.05;;;1.30;;
14665;SDS011;7420;53.574;10.040;2023-04-03T09:58:00;2.42;;;1.42;;
14665;SDS011;7420;53.574;10.040;2023-04-03T10:00:30;5.10;;;1.40;;
14665;SDS011;7420;53.574;10.040;2023-04-03T10:02:56;3.33;;;1.90;;
14665;SDS011;7420;53.574;10.040;2023-04-03T10:05:39;5.05;;;2.20;;
14665;SDS011;7420;53.574;10.040;2023-04-03T10:10:42;2.33;;;1.45;;
14665;SDS011;7420;53.574;10.040;2023-04-03T10:13:11;2.50;;;1.90;;
14665;SDS011;7420;53.574;10.040;2023-04-03T10:15:44;1.00;;;1.00;;
14665;SDS011;7420;53.574;10.040;2023-04-03T10:24:10;1.70;;;1.20;;
14665;SDS011;7420;53.574;10.040;2023-04-03T10:29:36;3.00;;;1.40;;
14665;SDS011;7420;53.574;10.040;2023-04-03T10:32:26;3.22;;;1.40;;
14665;SDS011;7420;53.574;10.040;2023-04-03T10:35:07;3.80;;;1.63;;
14665;SDS011;7420;53.574;10.040;2023-04-03T10:40:36;3.05;;;2.10;;
14665;SDS011;7420;53.574;10.040;2023-04-03T10:48:44;2.63;;;1.77;;
14665;SDS011;7420;53.574;10.040;2023-04-03T10:51:39;5.47;;;2.90;;
14665;SDS011;7420;53.574;10.040;2023-04-03T10:54:24;2.88;;;1.85;;
14665;SDS011;7420;53.574;10.040;2023-04-03T10:56:56;6.47;;;2.80;;
14665;SDS011;7420;53.574;10.040;2023-04-03T10:59:27;4.20;;;2.45;;
14665;SDS011;7420;53.574;10.040;2023-04-03T11:01:59;4.40;;;2.00;;
14665;SDS011;7420;53.574;10.040;2023-04-03T11:04:29;4.82;;;1.58;;
14665;SDS011;7420;53.574;10.040;2023-04-03T11:07:03;4.35;;;1.83;;
14665;SDS011;7420;53.574;10.040;2023-04-03T11:09:35;5.13;;;1.55;;
14665;SDS011;7420;53.574;10.040;2023-04-03T11:12:06;3.90;;;1.77;;
14665;SDS011;7420;53.574;10.040;2023-04-03T11:14:37;3.80;;;1.75;;
14665;SDS011;7420;53.574;10.040;2023-04-03T11:17:11;3.53;;;2.03;;
14665;SDS011;7420;53.574;10.040;2023-04-03T11:19:49;5.43;;;1.73;;
14665;SDS011;7420;53.574;10.040;2023-04-03T11:24:57;2.58;;;1.50;;
14665;SDS011;7420;53.574;10.040;2023-04-03T11:27:28;2.53;;;1.50;;
14665;SDS011;7420;53.574;10.040;2023-04-03T11:30:00;4.57;;;1.70;;
14665;SDS011;7420;53.574;10.040;2023-04-03T11:32:37;3.60;;;1.88;;
14665;SDS011;7420;53.574;10.040;2023-04-03T11:35:08;5.68;;;1.90;;
14665;SDS011;7420;53.574;10.040;2023-04-03T11:37:35;3.03;;;1.58;;
14665;SDS011;7420;53.574;10.040;2023-04-03T11:42:40;5.82;;;1.90;;
14665;SDS011;7420;53.574;10.040;2023-04-03T11:45:24;2.45;;;1.60;;
14665;SDS011;7420;53.574;10.040;2023-04-03T11:47:58;2.70;;;2.03;;
14665;SDS011;7420;53.574;10.040;2023-04-03T11:50:43;3.53;;;1.45;;
14665;SDS011;7420;53.574;10.040;2023-04-03T11:55:46;2.20;;;2.08;;
14665;SDS011;7420;53.574;10.040;2023-04-03T11:58:26;4.60;;;1.52;;
14665;SDS011;7420;53.574;10.040;2023-04-03T12:16:31;3.25;;;2.28;;
14665;SDS011;7420;53.574;10.040;2023-04-03T12:45:17;3.25;;;1.80;;
14665;SDS011;7420;53.574;10.040;2023-04-03T12:47:48;3.83;;;1.40;;
14665;SDS011;7420;53.574;10.040;2023-04-03T12:50:18;3.38;;;1.23;;
14665;SDS011;7420;53.574;10.040;2023-04-03T12:53:02;2.33;;;1.40;;
14665;SDS011;7420;53.574;10.040;2023-04-03T12:55:31;2.90;;;1.45;;
14665;SDS011;7420;53.574;10.040;2023-04-03T12:57:57;3.90;;;1.40;;
14665;SDS011;7420;53.574;10.040;2023-04-03T13:02:51;1.92;;;1.40;;
14665;SDS011;7420;53.574;10.040;2023-04-03T13:05:17;3.05;;;1.50;;
14665;SDS011;7420;53.574;10.040;2023-04-03T13:07:44;2.65;;;1.20;;
14665;SDS011;7420;53.574;10.040;2023-04-03T13:10:17;2.97;;;1.65;;
14665;SDS011;7420;53.574;10.040;2023-04-03T13:12:47;2.55;;;1.30;;
14665;SDS011;7420;53.574;10.040;2023-04-03T13:15:21;3.47;;;1.70;;
14665;SDS011;7420;53.574;10.040;2023-04-03T13:17:50;4.70;;;1.60;;
14665;SDS011;7420;53.574;10.040;2023-04-03T13:20:19;3.40;;;1.20;;
14665;SDS011;7420;53.574;10.040;2023-04-03T13:22:49;2.13;;;1.35;;
14665;SDS011;7420;53.574;10.040;2023-04-03T13:25:20;1.45;;;1.10;;
14665;SDS011;7420;53.574;10.040;2023-04-03T13:27:47;3.35;;;1.30;;
14665;SDS011;7420;53.574;10.040;2023-04-03T13:30:26;2.60;;;1.55;;
14665;SDS011;7420;53.574;10.040;2023-04-03T13:32:58;3.88;;;1.75;;
14665;SDS011;7420;53.574;10.040;2023-04-03T13:38:26;4.60;;;3.05;;
14665;SDS011;7420;53.574;10.040;2023-04-03T13:43:25;4.25;;;2.30;;
14665;SDS011;7420;53.574;10.040;2023-04-03T13:48:25;4.38;;;1.63;;
14665;SDS011;7420;53.574;10.040;2023-04-03T13:50:52;3.13;;;1.30;;
14665;SDS011;7420;53.574;10.040;2023-04-03T13:53:21;3.88;;;1.95;;
14665;SDS011;7420;53.574;10.040;2023-04-03T13:55:58;3.22;;;2.13;;
14665;SDS011;7420;53.574;10.040;2023-04-03T13:58:27;1.55;;;1.30;;
14665;SDS011;7420;53.574;10.040;2023-04-03T14:03:43;2.80;;;1.73;;
14665;SDS011;7420;53.574;10.040;2023-04-03T14:06:12;1.98;;;1.38;;
14665;SDS011;7420;53.574;10.040;2023-04-03T14:08:40;3.50;;;1.33;;
14665;SDS011;7420;53.574;10.040;2023-04-03T14:11:08;1.15;;;1.08;;
14665;SDS011;7420;53.574;10.040;2023-04-03T14:13:40;1.77;;;1.27;;
14665;SDS011;7420;53.574;10.040;2023-04-03T14:16:06;2.30;;;1.38;;
14665;SDS011;7420;53.574;10.040;2023-04-03T14:18:31;3.65;;;1.60;;
14665;SDS011;7420;53.574;10.040;2023-04-03T14:20:57;3.95;;;1.70;;
14665;SDS011;7420;53.574;10.040;2023-04-03T14:23:23;4.07;;;1.70;;
14665;SDS011;7420;53.574;10.040;2023-04-03T14:25:48;3.90;;;1.48;;
14665;SDS011;7420;53.574;10.040;2023-04-03T14:28:17;3.20;;;1.33;;
14665;SDS011;7420;53.574;10.040;2023-04-03T14:30:45;4.97;;;1.65;;
14665;SDS011;7420;53.574;10.040;2023-04-03T14:33:16;3.58;;;1.55;;
14665;SDS011;7420;53.574;10.040;2023-04-03T14:35:46;3.70;;;2.03;;
14665;SDS011;7420;53.574;10.040;2023-04-03T14:38:20;3.97;;;2.40;;
14665;SDS011;7420;53.574;10.040;2023-04-03T14:40:53;2.58;;;1.35;;
14665;SDS011;7420;53.574;10.040;2023-04-03T14:43:19;2.15;;;1.35;;
14665;SDS011;7420;53.574;10.040;2023-04-03T14:45:45;4.30;;;1.67;;
14665;SDS011;7420;53.574;10.040;2023-04-03T14:48:16;3.83;;;1.38;;
14665;SDS011;7420;53.574;10.040;2023-04-03T14:50:47;3.08;;;1.80;;
14665;SDS011;7420;53.574;10.040;2023-04-03T14:53:14;4.75;;;2.10;;
14665;SDS011;7420;53.574;10.040;2023-04-03T14:55:41;2.70;;;1.70;;
14665;SDS011;7420;53.574;10.040;2023-04-03T14:58:15;4.28;;;1.77;;
14665;SDS011;7420;53.574;10.040;2023-04-03T15:00:43;2.38;;;1.90;;
14665;SDS011;7420;53.574;10.040;2023-04-03T15:03:13;2.50;;;1.50;;
14665;SDS011;7420;53.574;10.040;2023-04-03T15:05:40;3.70;;;1.40;;
14665;SDS011;7420;53.574;10.040;2023-04-03T15:08:07;3.22;;;1.40;;
14665;SDS011;7420;53.574;10.040;2023-04-03T15:10:42;2.72;;;1.38;;
14665;SDS011;7420;53.574;10.040;2023-04-03T15:13:08;3.85;;;1.60;;
14665;SDS011;7420;53.574;10.040;2023-04-03T15:15:35;4.32;;;2.10;;
14665;SDS011;7420;53.574;10.040;2023-04-03T15:18:01;2.67;;;1.60;;
14665;SDS011;7420;53.574;10.040;2023-04-03T15:20:27;3.15;;;2.00;;
14665;SDS011;7420;53.574;10.040;2023-04-03T15:22:55;7.78;;;4.25;;
14665;SDS011;7420;53.574;10.040;2023-04-03T15:25:25;4.38;;;2.17;;
14665;SDS011;7420;53.574;10.040;2023-04-03T15:27:52;4.45;;;2.67;;
14665;SDS011;7420;53.574;10.040;2023-04-03T15:30:18;3.72;;;2.00;;
14665;SDS011;7420;53.574;10.040;2023-04-03T15:32:45;4.82;;;1.73;;
14665;SDS011;7420;53.574;10.040;2023-04-03T15:35:11;3.92;;;1.73;;
14665;SDS011;7420;53.574;10.040;2023-04-03T15:37:36;3.55;;;1.80;;
14665;SDS011;7420;53.574;10.040;2023-04-03T15:40:02;3.15;;;1.60;;
14665;SDS011;7420;53.574;10.040;2023-04-03T15:42:29;5.45;;;2.17;;
14665;SDS011;7420;53.574;10.040;2023-04-03T15:44:55;6.53;;;2.25;;
14665;SDS011;7420;53.574;10.040;2023-04-03T15:47:20;4.00;;;2.38;;
14665;SDS011;7420;53.574;10.040;2023-04-03T15:49:45;5.28;;;1.83;;
14665;SDS011;7420;53.574;10.040;2023-04-03T15:52:11;4.90;;;1.55;;
14665;SDS011;7420;53.574;10.040;2023-04-03T15:54:36;3.22;;;1.50;;
14665;SDS011;7420;53.574;10.040;2023-04-03T15:57:01;4.57;;;1.70;;
14665;SDS011;7420;53.574;10.040;2023-04-03T15:59:27;3.05;;;1.90;;
14665;SDS011;7420;53.574;10.040;2023-04-03T16:01:55;3.22;;;1.90;;
14665;SDS011;7420;53.574;10.040;2023-04-03T16:04:21;5.15;;;1.98;;
14665;SDS011;7420;53.574;10.040;2023-04-03T16:06:46;3.20;;;1.92;;
14665;SDS011;7420;53.574;10.040;2023-04-03T16:09:12;4.22;;;2.00;;
14665;SDS011;7420;53.574;10.040;2023-04-03T16:11:37;4.65;;;1.83;;
14665;SDS011;7420;53.574;10.040;2023-04-03T16:14:05;3.67;;;1.92;;
14665;SDS011;7420;53.574;10.040;2023-04-03T16:16:31;4.85;;;2.65;;
14665;SDS011;7420;53.574;10.040;2023-04-03T16:18:57;3.92;;;1.95;;
14665;SDS011;7420;53.574;10.040;2023-04-03T16:21:22;2.95;;;1.83;;
14665;SDS011;7420;53.574;10.040;2023-04-03T16:23:48;5.30;;;1.70;;
14665;SDS011;7420;53.574;10.040;2023-04-03T16:26:14;4.85;;;2.05;;
14665;SDS011;7420;53.574;10.040;2023-04-03T16:28:40;5.15;;;1.95;;
14665;SDS011;7420;53.574;10.040;2023-04-03T16:31:05;3.25;;;1.80;;
14665;SDS011;7420;53.574;10.040;2023-04-03T16:33:32;4.38;;;2.15;;
14665;SDS011;7420;53.574;10.040;2023-04-03T16:35:57;3.97;;;1.80;;
14665;SDS011;7420;53.574;10.040;2023-04-03T16:38:23;5.82;;;2.00;;
14665;SDS011;7420;53.574;10.040;2023-04-03T16:40:48;5.00;;;1.88;;
14665;SDS011;7420;53.574;10.040;2023-04-03T16:43:14;4.05;;;1.75;;
14665;SDS011;7420;53.574;10.040;2023-04-03T16:45:40;4.45;;;2.00;;
14665;SDS011;7420;53.574;10.040;2023-04-03T16:48:05;4.63;;;2.08;;
14665;SDS011;7420;53.574;10.040;2023-04-03T16:50:31;6.18;;;1.90;;
14665;SDS011;7420;53.574;10.040;2023-04-03T16:52:57;4.38;;;1.83;;